sensor_id;sensor_type;location;lat;lon;timestamp;pressure;altitude;pressure_sealevel;temperature;humidity
48204;BME280;33994;50.998;5.864;2023-01-26T00:01:27;102082.06;;;-2.02;88.48
48204;BME280;33994;50.998;5.864;2023-01-26T00:04:30;102082.31;;;-1.98;88.32
48204;BME280;33994;50.998;5.864;2023-01-26T00:07:34;102076.94;;;-2.02;88.97
48204;BME280;33994;50.998;5.864;2023-01-26T00:10:38;102074.56;;;-1.99;89.30
48204;BME280;33994;50.998;5.864;2023-01-26T00:13:43;102059.94;;;-2.00;89.42
48204;BME280;33994;50.998;5.864;2023-01-26T00:16:46;102061.19;;;-1.93;89.68
48204;BME280;33994;50.998;5.864;2023-01-26T00:19:49;102061.34;;;-1.90;89.93
48204;BME280;33994;50.998;5.864;2023-01-26T00:22:54;102053.50;;;-1.93;90.05
48204;BME280;33994;50.998;5.864;2023-01-26T00:25:57;102051.56;;;-1.98;90.23
48204;BME280;33994;50.998;5.864;2023-01-26T00:29:01;102047.22;;;-1.99;90.50
48204;BME280;33994;50.998;5.864;2023-01-26T00:32:04;102051.50;;;-1.99;90.66
48204;BME280;33994;50.998;5.864;2023-01-26T00:35:08;102049.94;;;-1.95;90.96
48204;BME280;33994;50.998;5.864;2023-01-26T00:38:13;102046.69;;;-1.93;90.70
48204;BME280;33994;50.998;5.864;2023-01-26T00:41:15;102041.38;;;-1.96;90.84
48204;BME280;33994;50.998;5.864;2023-01-26T00:44:19;102043.16;;;-1.95;90.98
48204;BME280;33994;50.998;5.864;2023-01-26T00:47:21;102031.28;;;-1.93;91.30
48204;BME280;33994;50.998;5.864;2023-01-26T00:50:25;102021.75;;;-1.95;91.50
48204;BME280;33994;50.998;5.864;2023-01-26T00:53:29;102013.03;;;-1.99;91.51
48204;BME280;33994;50.998;5.864;2023-01-26T00:56:32;102013.81;;;-2.00;91.61
48204;BME280;33994;50.998;5.864;2023-01-26T00:59:35;102008.34;;;-2.06;91.86
48204;BME280;33994;50.998;5.864;2023-01-26T01:02:39;102004.00;;;-2.07;91.99
48204;BME280;33994;50.998;5.864;2023-01-26T01:05:41;102003.22;;;-2.06;92.27
48204;BME280;33994;50.998;5.864;2023-01-26T01:08:46;101995.44;;;-2.08;92.33
48204;BME280;33994;50.998;5.864;2023-01-26T01:11:49;101985.91;;;-2.10;92.52
48204;BME280;33994;50.998;5.864;2023-01-26T01:14:52;101973.97;;;-2.10;92.88
48204;BME280;33994;50.998;5.864;2023-01-26T01:17:55;101974.84;;;-2.09;92.97
48204;BME280;33994;50.998;5.864;2023-01-26T01:20:58;101994.38;;;-2.11;93.03
48204;BME280;33994;50.998;5.864;2023-01-26T01:24:03;101979.09;;;-2.10;93.37
48204;BME280;33994;50.998;5.864;2023-01-26T01:27:06;101988.53;;;-2.09;93.54
48204;BME280;33994;50.998;5.864;2023-01-26T01:30:11;101979.34;;;-2.05;93.75
48204;BME280;33994;50.998;5.864;2023-01-26T01:33:13;101980.41;;;-2.02;93.72
48204;BME280;33994;50.998;5.864;2023-01-26T01:36:16;101974.41;;;-2.02;93.56
48204;BME280;33994;50.998;5.864;2023-01-26T01:39:20;101974.63;;;-1.98;93.84
48204;BME280;33994;50.998;5.864;2023-01-26T01:42:24;101974.72;;;-1.96;93.82
48204;BME280;33994;50.998;5.864;2023-01-26T01:45:37;101971.25;;;-1.96;94.02
48204;BME280;33994;50.998;5.864;2023-01-26T01:48:48;101965.50;;;-1.92;94.43
48204;BME280;33994;50.998;5.864;2023-01-26T01:51:55;101966.53;;;-1.89;94.45
48204;BME280;33994;50.998;5.864;2023-01-26T01:55:05;101973.44;;;-1.88;94.54
48204;BME280;33994;50.998;5.864;2023-01-26T01:58:11;101964.16;;;-1.86;94.38
48204;BME280;33994;50.998;5.864;2023-01-26T02:01:14;101966.78;;;-1.84;94.27
48204;BME280;33994;50.998;5.864;2023-01-26T02:04:19;101962.41;;;-1.87;94.41
48204;BME280;33994;50.998;5.864;2023-01-26T02:07:23;101958.03;;;-1.88;94.99
48204;BME280;33994;50.998;5.864;2023-01-26T02:10:28;101957.44;;;-1.84;94.66
48204;BME280;33994;50.998;5.864;2023-01-26T02:13:32;101959.09;;;-1.84;94.97
48204;BME280;33994;50.998;5.864;2023-01-26T02:16:36;101961.94;;;-1.80;94.61
48204;BME280;33994;50.998;5.864;2023-01-26T02:19:53;101951.28;;;-1.71;94.56
48204;BME280;33994;50.998;5.864;2023-01-26T02:23:03;101946.19;;;-1.69;94.53
48204;BME280;33994;50.998;5.864;2023-01-26T02:26:14;101947.91;;;-1.70;94.36
48204;BME280;33994;50.998;5.864;2023-01-26T02:29:18;101948.94;;;-1.66;94.11
48204;BME280;33994;50.998;5.864;2023-01-26T02:32:21;101939.88;;;-1.60;94.11
48204;BME280;33994;50.998;5.864;2023-01-26T02:35:24;101941.47;;;-1.62;94.19
48204;BME280;33994;50.998;5.864;2023-01-26T02:38:31;101938.84;;;-1.63;94.11
48204;BME280;33994;50.998;5.864;2023-01-26T02:41:40;101936.50;;;-1.59;94.39
48204;BME280;33994;50.998;5.864;2023-01-26T02:44:43;101939.19;;;-1.57;94.25
48204;BME280;33994;50.998;5.864;2023-01-26T02:47:46;101928.09;;;-1.56;94.63
48204;BME280;33994;50.998;5.864;2023-01-26T02:50:49;101931.53;;;-1.56;94.79
48204;BME280;33994;50.998;5.864;2023-01-26T02:53:52;101928.91;;;-1.57;94.76
48204;BME280;33994;50.998;5.864;2023-01-26T02:56:57;101922.00;;;-1.58;95.00
48204;BME280;33994;50.998;5.864;2023-01-26T03:00:00;101921.84;;;-1.61;94.88
48204;BME280;33994;50.998;5.864;2023-01-26T03:03:09;101919.44;;;-1.58;95.12
48204;BME280;33994;50.998;5.864;2023-01-26T03:06:14;101915.28;;;-1.56;95.27
48204;BME280;33994;50.998;5.864;2023-01-26T03:09:17;101916.09;;;-1.57;95.09
48204;BME280;33994;50.998;5.864;2023-01-26T03:12:22;101923.84;;;-1.56;95.27
48204;BME280;33994;50.998;5.864;2023-01-26T03:15:25;101923.13;;;-1.53;95.13
48204;BME280;33994;50.998;5.864;2023-01-26T03:18:28;101918.94;;;-1.51;95.07
48204;BME280;33994;50.998;5.864;2023-01-26T03:21:31;101913.09;;;-1.48;95.25
48204;BME280;33994;50.998;5.864;2023-01-26T03:24:34;101914.84;;;-1.47;95.01
48204;BME280;33994;50.998;5.864;2023-01-26T03:27:41;101914.84;;;-1.47;94.92
48204;BME280;33994;50.998;5.864;2023-01-26T03:30:45;101915.72;;;-1.47;94.98
48204;BME280;33994;50.998;5.864;2023-01-26T03:33:48;101907.22;;;-1.46;94.41
48204;BME280;33994;50.998;5.864;2023-01-26T03:36:51;101906.44;;;-1.45;94.56
48204;BME280;33994;50.998;5.864;2023-01-26T03:39:54;101906.28;;;-1.48;94.96
48204;BME280;33994;50.998;5.864;2023-01-26T03:43:06;101912.34;;;-1.46;95.05
48204;BME280;33994;50.998;5.864;2023-01-26T03:46:09;101902.41;;;-1.40;94.82
48204;BME280;33994;50.998;5.864;2023-01-26T03:49:12;101908.75;;;-1.33;94.47
48204;BME280;33994;50.998;5.864;2023-01-26T03:52:15;101916.69;;;-1.29;94.60
48204;BME280;33994;50.998;5.864;2023-01-26T03:55:18;101920.34;;;-1.23;94.55
48204;BME280;33994;50.998;5.864;2023-01-26T03:58:22;101911.75;;;-1.24;94.36
48204;BME280;33994;50.998;5.864;2023-01-26T04:01:25;101906.84;;;-1.19;94.34
48204;BME280;33994;50.998;5.864;2023-01-26T04:04:28;101900.13;;;-1.17;94.52
48204;BME280;33994;50.998;5.864;2023-01-26T04:07:32;101893.25;;;-1.18;94.48
48204;BME280;33994;50.998;5.864;2023-01-26T04:10:35;101893.31;;;-1.17;94.52
48204;BME280;33994;50.998;5.864;2023-01-26T04:13:39;101901.72;;;-1.19;94.69
48204;BME280;33994;50.998;5.864;2023-01-26T04:16:42;101899.97;;;-1.20;94.41
48204;BME280;33994;50.998;5.864;2023-01-26T04:19:45;101897.34;;;-1.22;94.64
48204;BME280;33994;50.998;5.864;2023-01-26T04:22:48;101905.03;;;-1.22;95.20
48204;BME280;33994;50.998;5.864;2023-01-26T04:25:51;101909.34;;;-1.21;95.43
48204;BME280;33994;50.998;5.864;2023-01-26T04:28:56;101904.16;;;-1.22;96.07
48204;BME280;33994;50.998;5.864;2023-01-26T04:31:58;101907.66;;;-1.20;96.38
48204;BME280;33994;50.998;5.864;2023-01-26T04:35:02;101901.06;;;-1.15;96.46
48204;BME280;33994;50.998;5.864;2023-01-26T04:38:05;101897.06;;;-1.10;96.41
48204;BME280;33994;50.998;5.864;2023-01-26T04:41:09;101896.91;;;-1.13;97.07
48204;BME280;33994;50.998;5.864;2023-01-26T04:44:13;101897.63;;;-1.16;96.94
48204;BME280;33994;50.998;5.864;2023-01-26T04:47:16;101891.44;;;-1.19;97.07
48204;BME280;33994;50.998;5.864;2023-01-26T04:50:20;101889.69;;;-1.20;97.32
48204;BME280;33994;50.998;5.864;2023-01-26T04:53:23;101880.25;;;-1.21;97.29
48204;BME280;33994;50.998;5.864;2023-01-26T04:56:28;101884.41;;;-1.23;97.67
48204;BME280;33994;50.998;5.864;2023-01-26T04:59:32;101891.16;;;-1.26;97.83
48204;BME280;33994;50.998;5.864;2023-01-26T05:02:35;101890.19;;;-1.28;97.93
48204;BME280;33994;50.998;5.864;2023-01-26T05:05:38;101885.88;;;-1.29;98.30
48204;BME280;33994;50.998;5.864;2023-01-26T05:08:41;101876.31;;;-1.31;98.62
48204;BME280;33994;50.998;5.864;2023-01-26T05:14:03;101885.00;;;-1.29;98.57
48204;BME280;33994;50.998;5.864;2023-01-26T05:17:06;101889.25;;;-1.30;98.71
48204;BME280;33994;50.998;5.864;2023-01-26T05:20:10;101889.97;;;-1.32;99.00
48204;BME280;33994;50.998;5.864;2023-01-26T05:23:13;101893.25;;;-1.35;99.03
48204;BME280;33994;50.998;5.864;2023-01-26T05:26:16;101898.66;;;-1.30;99.19
48204;BME280;33994;50.998;5.864;2023-01-26T05:29:21;101890.03;;;-1.31;99.34
48204;BME280;33994;50.998;5.864;2023-01-26T05:32:24;101892.84;;;-1.26;99.40
48204;BME280;33994;50.998;5.864;2023-01-26T05:35:27;101894.69;;;-1.23;99.56
48204;BME280;33994;50.998;5.864;2023-01-26T05:38:31;101893.25;;;-1.18;99.76
48204;BME280;33994;50.998;5.864;2023-01-26T05:41:33;101884.72;;;-1.17;99.98
48204;BME280;33994;50.998;5.864;2023-01-26T05:44:38;101884.88;;;-1.14;99.72
48204;BME280;33994;50.998;5.864;2023-01-26T05:47:42;101893.53;;;-1.12;99.67
48204;BME280;33994;50.998;5.864;2023-01-26T05:50:45;101892.66;;;-1.13;99.99
48204;BME280;33994;50.998;5.864;2023-01-26T05:53:48;101889.19;;;-1.13;99.57
48204;BME280;33994;50.998;5.864;2023-01-26T05:56:51;101894.28;;;-1.15;100.00
48204;BME280;33994;50.998;5.864;2023-01-26T05:59:55;101891.78;;;-1.13;99.83
48204;BME280;33994;50.998;5.864;2023-01-26T06:02:59;101891.78;;;-1.13;100.00
48204;BME280;33994;50.998;5.864;2023-01-26T06:06:02;101893.31;;;-1.17;100.00
48204;BME280;33994;50.998;5.864;2023-01-26T06:09:05;101891.59;;;-1.16;100.00
48204;BME280;33994;50.998;5.864;2023-01-26T06:12:13;101905.56;;;-1.11;100.00
48204;BME280;33994;50.998;5.864;2023-01-26T06:15:18;101892.81;;;-1.10;100.00
48204;BME280;33994;50.998;5.864;2023-01-26T06:18:21;101906.03;;;-1.02;100.00
48204;BME280;33994;50.998;5.864;2023-01-26T06:21:24;101907.94;;;-0.98;100.00
48204;BME280;33994;50.998;5.864;2023-01-26T06:24:27;101910.72;;;-0.93;99.75
48204;BME280;33994;50.998;5.864;2023-01-26T06:27:30;101918.59;;;-0.90;99.81
48204;BME280;33994;50.998;5.864;2023-01-26T06:30:34;101913.50;;;-0.89;100.00
48204;BME280;33994;50.998;5.864;2023-01-26T06:33:38;101914.41;;;-0.88;99.81
48204;BME280;33994;50.998;5.864;2023-01-26T06:36:41;101912.72;;;-0.88;99.47
48204;BME280;33994;50.998;5.864;2023-01-26T06:39:44;101914.31;;;-0.90;98.78
48204;BME280;33994;50.998;5.864;2023-01-26T06:42:48;101921.88;;;-0.93;99.38
48204;BME280;33994;50.998;5.864;2023-01-26T06:45:54;101917.03;;;-0.87;99.09
48204;BME280;33994;50.998;5.864;2023-01-26T06:48:57;101916.44;;;-0.81;99.35
48204;BME280;33994;50.998;5.864;2023-01-26T06:52:03;101921.03;;;-0.76;99.16
48204;BME280;33994;50.998;5.864;2023-01-26T06:55:15;101915.88;;;-0.76;99.09
48204;BME280;33994;50.998;5.864;2023-01-26T06:58:19;101914.13;;;-0.77;98.86
48204;BME280;33994;50.998;5.864;2023-01-26T07:01:25;101909.78;;;-0.78;98.95
48204;BME280;33994;50.998;5.864;2023-01-26T07:04:28;101911.47;;;-0.78;98.98
48204;BME280;33994;50.998;5.864;2023-01-26T07:07:31;101915.06;;;-0.74;99.14
48204;BME280;33994;50.998;5.864;2023-01-26T07:10:34;101915.16;;;-0.73;98.97
48204;BME280;33994;50.998;5.864;2023-01-26T07:13:38;101917.72;;;-0.73;99.06
48204;BME280;33994;50.998;5.864;2023-01-26T07:16:43;101921.97;;;-0.73;98.85
48204;BME280;33994;50.998;5.864;2023-01-26T07:19:45;101922.78;;;-0.74;98.36
48204;BME280;33994;50.998;5.864;2023-01-26T07:22:49;101925.28;;;-0.76;98.13
48204;BME280;33994;50.998;5.864;2023-01-26T07:25:52;101918.38;;;-0.77;98.57
48204;BME280;33994;50.998;5.864;2023-01-26T07:28:55;101914.13;;;-0.77;98.39
48204;BME280;33994;50.998;5.864;2023-01-26T07:31:59;101922.78;;;-0.74;98.28
48204;BME280;33994;50.998;5.864;2023-01-26T07:35:03;101926.47;;;-0.69;98.96
48204;BME280;33994;50.998;5.864;2023-01-26T07:38:07;101925.81;;;-0.65;98.79
48204;BME280;33994;50.998;5.864;2023-01-26T07:41:11;101935.13;;;-0.67;99.07
48204;BME280;33994;50.998;5.864;2023-01-26T07:44:15;101925.81;;;-0.65;99.26
48204;BME280;33994;50.998;5.864;2023-01-26T07:47:19;101925.94;;;-0.62;98.74
48204;BME280;33994;50.998;5.864;2023-01-26T07:50:23;101929.41;;;-0.62;98.76
48204;BME280;33994;50.998;5.864;2023-01-26T07:53:26;101928.59;;;-0.61;98.69
48204;BME280;33994;50.998;5.864;2023-01-26T07:56:30;101936.31;;;-0.61;98.70
48204;BME280;33994;50.998;5.864;2023-01-26T07:59:34;101943.78;;;-0.65;98.38
48204;BME280;33994;50.998;5.864;2023-01-26T08:02:38;101948.94;;;-0.65;98.64
48204;BME280;33994;50.998;5.864;2023-01-26T08:05:41;101954.28;;;-0.61;98.76
48204;BME280;33994;50.998;5.864;2023-01-26T08:08:45;101957.00;;;-0.58;98.81
48204;BME280;33994;50.998;5.864;2023-01-26T08:11:48;101951.78;;;-0.59;98.56
48204;BME280;33994;50.998;5.864;2023-01-26T08:14:51;101957.72;;;-0.60;98.64
48204;BME280;33994;50.998;5.864;2023-01-26T08:17:55;101959.47;;;-0.59;98.35
48204;BME280;33994;50.998;5.864;2023-01-26T08:20:59;101962.16;;;-0.58;98.89
48204;BME280;33994;50.998;5.864;2023-01-26T08:24:02;101963.19;;;-0.54;98.75
48204;BME280;33994;50.998;5.864;2023-01-26T08:27:05;101952.97;;;-0.53;99.15
48204;BME280;33994;50.998;5.864;2023-01-26T08:30:09;101953.91;;;-0.51;98.77
48204;BME280;33994;50.998;5.864;2023-01-26T08:33:14;101953.13;;;-0.49;99.03
48204;BME280;33994;50.998;5.864;2023-01-26T08:36:17;101961.69;;;-0.49;99.13
48204;BME280;33994;50.998;5.864;2023-01-26T08:39:21;101958.47;;;-0.45;99.50
48204;BME280;33994;50.998;5.864;2023-01-26T08:42:24;101951.63;;;-0.44;99.00
48204;BME280;33994;50.998;5.864;2023-01-26T08:45:27;101961.97;;;-0.43;98.88
48204;BME280;33994;50.998;5.864;2023-01-26T08:48:33;101962.94;;;-0.41;99.47
48204;BME280;33994;50.998;5.864;2023-01-26T08:51:36;101969.94;;;-0.38;98.73
48204;BME280;33994;50.998;5.864;2023-01-26T08:54:39;101967.41;;;-0.37;98.51
48204;BME280;33994;50.998;5.864;2023-01-26T08:57:42;101978.69;;;-0.35;98.33
48204;BME280;33994;50.998;5.864;2023-01-26T09:00:45;101970.97;;;-0.35;98.22
48204;BME280;33994;50.998;5.864;2023-01-26T09:03:50;101974.25;;;-0.37;98.26
48204;BME280;33994;50.998;5.864;2023-01-26T09:06:53;101972.03;;;-0.12;98.72
48204;BME280;33994;50.998;5.864;2023-01-26T09:09:56;101970.69;;;0.34;98.91
48204;BME280;33994;50.998;5.864;2023-01-26T09:13:00;101978.16;;;0.47;96.89
48204;BME280;33994;50.998;5.864;2023-01-26T09:16:04;101980.72;;;0.28;96.42
48204;BME280;33994;50.998;5.864;2023-01-26T09:19:09;101985.16;;;0.12;96.21
48204;BME280;33994;50.998;5.864;2023-01-26T09:22:12;101995.16;;;0.06;96.39
48204;BME280;33994;50.998;5.864;2023-01-26T09:25:15;101994.94;;;0.02;96.29
48204;BME280;33994;50.998;5.864;2023-01-26T09:28:18;101986.06;;;-0.05;96.77
48204;BME280;33994;50.998;5.864;2023-01-26T09:31:21;101975.66;;;-0.08;96.89
48204;BME280;33994;50.998;5.864;2023-01-26T09:34:26;101980.03;;;-0.06;96.98
48204;BME280;33994;50.998;5.864;2023-01-26T09:37:29;101986.06;;;-0.05;96.62
48204;BME280;33994;50.998;5.864;2023-01-26T09:40:38;101988.72;;;-0.04;97.37
48204;BME280;33994;50.998;5.864;2023-01-26T09:43:47;101988.63;;;-0.05;97.28
48204;BME280;33994;50.998;5.864;2023-01-26T09:47:01;101987.69;;;-0.07;97.20
48204;BME280;33994;50.998;5.864;2023-01-26T09:50:11;101983.72;;;-0.00;98.52
48204;BME280;33994;50.998;5.864;2023-01-26T09:53:19;101984.06;;;0.07;97.89
48204;BME280;33994;50.998;5.864;2023-01-26T09:56:27;101982.44;;;0.09;97.67
48204;BME280;33994;50.998;5.864;2023-01-26T09:59:34;101991.13;;;0.11;97.93
48204;BME280;33994;50.998;5.864;2023-01-26T10:02:48;101984.44;;;0.15;97.51
48204;BME280;33994;50.998;5.864;2023-01-26T10:05:59;101992.25;;;0.18;98.02
48204;BME280;33994;50.998;5.864;2023-01-26T10:09:13;101990.81;;;0.23;97.66
48204;BME280;33994;50.998;5.864;2023-01-26T10:12:20;101986.53;;;0.24;97.69
48204;BME280;33994;50.998;5.864;2023-01-26T10:15:28;101992.75;;;0.29;97.57
48204;BME280;33994;50.998;5.864;2023-01-26T10:18:43;101979.06;;;0.30;97.30
48204;BME280;33994;50.998;5.864;2023-01-26T10:21:52;101980.09;;;0.33;96.94
48204;BME280;33994;50.998;5.864;2023-01-26T10:24:58;101981.94;;;0.36;97.36
48204;BME280;33994;50.998;5.864;2023-01-26T10:28:10;101975.97;;;0.37;97.83
48204;BME280;33994;50.998;5.864;2023-01-26T10:31:15;101969.22;;;0.39;97.27
48204;BME280;33994;50.998;5.864;2023-01-26T10:34:22;101968.47;;;0.41;97.80
48204;BME280;33994;50.998;5.864;2023-01-26T10:37:27;101966.78;;;0.42;97.90
48204;BME280;33994;50.998;5.864;2023-01-26T10:40:41;101977.84;;;0.41;97.68
48204;BME280;33994;50.998;5.864;2023-01-26T10:43:50;101970.97;;;0.40;97.98
48204;BME280;33994;50.998;5.864;2023-01-26T10:47:05;101969.22;;;0.39;98.41
48204;BME280;33994;50.998;5.864;2023-01-26T10:50:20;101970.28;;;0.44;98.04
48204;BME280;33994;50.998;5.864;2023-01-26T10:53:27;101962.69;;;0.47;98.46
48204;BME280;33994;50.998;5.864;2023-01-26T10:56:29;101969.69;;;0.50;98.22
48204;BME280;33994;50.998;5.864;2023-01-26T10:59:36;101964.47;;;0.48;98.44
48204;BME280;33994;50.998;5.864;2023-01-26T11:02:48;101973.28;;;0.53;98.49
48204;BME280;33994;50.998;5.864;2023-01-26T11:06:04;101968.25;;;0.56;98.33
48204;BME280;33994;50.998;5.864;2023-01-26T11:09:16;101971.63;;;0.55;97.88
48204;BME280;33994;50.998;5.864;2023-01-26T11:12:23;101972.50;;;0.56;97.89
48204;BME280;33994;50.998;5.864;2023-01-26T11:15:28;101971.50;;;0.52;98.03
48204;BME280;33994;50.998;5.864;2023-01-26T11:18:39;101970.63;;;0.52;98.28
48204;BME280;33994;50.998;5.864;2023-01-26T11:21:46;101971.50;;;0.52;97.87
48204;BME280;33994;50.998;5.864;2023-01-26T11:24:57;101962.16;;;0.54;98.32
48204;BME280;33994;50.998;5.864;2023-01-26T11:28:13;101958.56;;;0.51;98.48
48204;BME280;33994;50.998;5.864;2023-01-26T11:31:28;101958.63;;;0.52;98.52
48204;BME280;33994;50.998;5.864;2023-01-26T11:34:43;101956.34;;;0.58;99.12
48204;BME280;33994;50.998;5.864;2023-01-26T11:37:54;101948.81;;;0.63;99.30
48204;BME280;33994;50.998;5.864;2023-01-26T11:41:13;101951.47;;;0.64;99.54
48204;BME280;33994;50.998;5.864;2023-01-26T11:48:03;101945.63;;;0.68;99.44
48204;BME280;33994;50.998;5.864;2023-01-26T11:51:19;101945.81;;;0.73;99.34
48204;BME280;33994;50.998;5.864;2023-01-26T11:54:36;101942.63;;;0.79;99.81
48204;BME280;33994;50.998;5.864;2023-01-26T11:57:52;101941.81;;;0.80;99.48
48204;BME280;33994;50.998;5.864;2023-01-26T12:01:02;101935.09;;;0.83;100.00
48204;BME280;33994;50.998;5.864;2023-01-26T12:04:12;101937.88;;;0.88;100.00
48204;BME280;33994;50.998;5.864;2023-01-26T12:07:20;101927.63;;;0.89;99.71
48204;BME280;33994;50.998;5.864;2023-01-26T12:10:29;101928.63;;;0.93;100.00
48204;BME280;33994;50.998;5.864;2023-01-26T12:13:38;101918.47;;;0.96;100.00
48204;BME280;33994;50.998;5.864;2023-01-26T12:16:49;101922.88;;;0.99;100.00
48204;BME280;33994;50.998;5.864;2023-01-26T12:20:00;101916.81;;;0.98;100.00
48204;BME280;33994;50.998;5.864;2023-01-26T12:23:11;101914.19;;;0.97;100.00
48204;BME280;33994;50.998;5.864;2023-01-26T12:26:20;101911.66;;;0.98;100.00
48204;BME280;33994;50.998;5.864;2023-01-26T12:29:29;101912.63;;;1.00;100.00
48204;BME280;33994;50.998;5.864;2023-01-26T12:32:38;101910.03;;;1.00;100.00
48204;BME280;33994;50.998;5.864;2023-01-26T12:35:49;101910.78;;;0.98;100.00
48204;BME280;33994;50.998;5.864;2023-01-26T12:39:07;101913.44;;;0.99;100.00
48204;BME280;33994;50.998;5.864;2023-01-26T12:42:21;101898.22;;;1.05;100.00
48204;BME280;33994;50.998;5.864;2023-01-26T12:45:33;101889.69;;;1.06;100.00
48204;BME280;33994;50.998;5.864;2023-01-26T12:48:42;101900.91;;;1.08;100.00
48204;BME280;33994;50.998;5.864;2023-01-26T12:51:53;101895.91;;;1.11;100.00
48204;BME280;33994;50.998;5.864;2023-01-26T12:55:01;101886.59;;;1.15;100.00
48204;BME280;33994;50.998;5.864;2023-01-26T12:58:11;101883.25;;;1.17;100.00
48204;BME280;33994;50.998;5.864;2023-01-26T13:01:20;101887.47;;;1.15;100.00
48204;BME280;33994;50.998;5.864;2023-01-26T13:04:24;101884.78;;;1.12;100.00
48204;BME280;33994;50.998;5.864;2023-01-26T13:07:33;101886.53;;;1.13;100.00
48204;BME280;33994;50.998;5.864;2023-01-26T13:10:45;101886.41;;;1.10;100.00
48204;BME280;33994;50.998;5.864;2023-01-26T13:13:54;101887.44;;;1.14;100.00
48204;BME280;33994;50.998;5.864;2023-01-26T13:20:54;101881.75;;;1.23;100.00
48204;BME280;33994;50.998;5.864;2023-01-26T13:23:57;101889.13;;;1.36;100.00
48204;BME280;33994;50.998;5.864;2023-01-26T13:27:00;101883.88;;;1.33;100.00
48204;BME280;33994;50.998;5.864;2023-01-26T13:30:28;101888.84;;;1.28;100.00
48204;BME280;33994;50.998;5.864;2023-01-26T13:33:35;101881.19;;;1.30;100.00
48204;BME280;33994;50.998;5.864;2023-01-26T13:36:40;101884.50;;;1.27;100.00
48204;BME280;33994;50.998;5.864;2023-01-26T13:39:48;101882.88;;;1.29;100.00
48204;BME280;33994;50.998;5.864;2023-01-26T13:42:59;101881.31;;;1.33;100.00
48204;BME280;33994;50.998;5.864;2023-01-26T13:46:13;101871.78;;;1.32;100.00
48204;BME280;33994;50.998;5.864;2023-01-26T13:49:25;101873.56;;;1.33;100.00
48204;BME280;33994;50.998;5.864;2023-01-26T13:52:28;101883.19;;;1.37;100.00
48204;BME280;33994;50.998;5.864;2023-01-26T13:55:32;101884.84;;;1.36;100.00
48204;BME280;33994;50.998;5.864;2023-01-26T13:58:35;101874.63;;;1.38;100.00
48204;BME280;33994;50.998;5.864;2023-01-26T14:01:43;101876.50;;;1.42;100.00
48204;BME280;33994;50.998;5.864;2023-01-26T14:04:51;101873.81;;;1.39;100.00
48204;BME280;33994;50.998;5.864;2023-01-26T14:07:55;101875.75;;;1.44;100.00
48204;BME280;33994;50.998;5.864;2023-01-26T14:10:58;101869.81;;;1.47;100.00
48204;BME280;33994;50.998;5.864;2023-01-26T14:14:02;101874.25;;;1.51;100.00
48204;BME280;33994;50.998;5.864;2023-01-26T14:17:06;101878.72;;;1.55;100.00
48204;BME280;33994;50.998;5.864;2023-01-26T14:20:20;101875.50;;;1.61;100.00
48204;BME280;33994;50.998;5.864;2023-01-26T14:23:27;101872.22;;;1.65;100.00
48204;BME280;33994;50.998;5.864;2023-01-26T14:26:31;101874.97;;;1.69;100.00
48204;BME280;33994;50.998;5.864;2023-01-26T14:29:37;101882.88;;;1.74;100.00
48204;BME280;33994;50.998;5.864;2023-01-26T14:32:41;101879.59;;;1.78;100.00
48204;BME280;33994;50.998;5.864;2023-01-26T14:35:56;101874.56;;;1.81;100.00
48204;BME280;33994;50.998;5.864;2023-01-26T14:38:59;101879.78;;;1.83;100.00
48204;BME280;33994;50.998;5.864;2023-01-26T14:42:03;101878.97;;;1.84;100.00
48204;BME280;33994;50.998;5.864;2023-01-26T14:45:10;101875.50;;;1.83;100.00
48204;BME280;33994;50.998;5.864;2023-01-26T14:48:16;101872.97;;;1.85;100.00
48204;BME280;33994;50.998;5.864;2023-01-26T14:51:23;101870.50;;;1.88;100.00
48204;BME280;33994;50.998;5.864;2023-01-26T14:54:28;101877.53;;;1.92;100.00
48204;BME280;33994;50.998;5.864;2023-01-26T14:57:32;101874.13;;;1.93;100.00
48204;BME280;33994;50.998;5.864;2023-01-26T15:00:37;101879.53;;;1.99;100.00
48204;BME280;33994;50.998;5.864;2023-01-26T15:03:40;101884.81;;;2.02;100.00
48204;BME280;33994;50.998;5.864;2023-01-26T15:06:45;101899.50;;;2.05;100.00
48204;BME280;33994;50.998;5.864;2023-01-26T15:09:51;101894.44;;;2.06;100.00
48204;BME280;33994;50.998;5.864;2023-01-26T15:12:56;101900.59;;;2.10;100.00
48204;BME280;33994;50.998;5.864;2023-01-26T15:16:02;101898.13;;;2.13;100.00
48204;BME280;33994;50.998;5.864;2023-01-26T15:19:20;101897.41;;;2.17;100.00
48204;BME280;33994;50.998;5.864;2023-01-26T15:22:25;101903.56;;;2.21;100.00
48204;BME280;33994;50.998;5.864;2023-01-26T15:25:30;101908.81;;;2.24;100.00
48204;BME280;33994;50.998;5.864;2023-01-26T15:28:34;101913.31;;;2.29;100.00
48204;BME280;33994;50.998;5.864;2023-01-26T15:31:40;101915.19;;;2.33;100.00
48204;BME280;33994;50.998;5.864;2023-01-26T15:34:44;101910.06;;;2.35;100.00
48204;BME280;33994;50.998;5.864;2023-01-26T15:37:48;101918.78;;;2.37;100.00
48204;BME280;33994;50.998;5.864;2023-01-26T15:40:52;101909.31;;;2.37;100.00
48204;BME280;33994;50.998;5.864;2023-01-26T15:43:55;101903.28;;;2.37;100.00
48204;BME280;33994;50.998;5.864;2023-01-26T15:46:58;101899.09;;;2.40;100.00
48204;BME280;33994;50.998;5.864;2023-01-26T15:50:01;101892.38;;;2.46;100.00
48204;BME280;33994;50.998;5.864;2023-01-26T15:53:10;101899.38;;;2.48;100.00
48204;BME280;33994;50.998;5.864;2023-01-26T15:56:14;101903.75;;;2.51;100.00
48204;BME280;33994;50.998;5.864;2023-01-26T15:59:17;101896.09;;;2.54;100.00
48204;BME280;33994;50.998;5.864;2023-01-26T16:02:20;101885.91;;;2.57;100.00
48204;BME280;33994;50.998;5.864;2023-01-26T16:05:25;101895.47;;;2.59;100.00
48204;BME280;33994;50.998;5.864;2023-01-26T16:08:29;101897.22;;;2.60;100.00
48204;BME280;33994;50.998;5.864;2023-01-26T16:11:34;101892.09;;;2.62;100.00
48204;BME280;33994;50.998;5.864;2023-01-26T16:14:38;101885.31;;;2.65;100.00
48204;BME280;33994;50.998;5.864;2023-01-26T16:17:41;101892.28;;;2.66;100.00
48204;BME280;33994;50.998;5.864;2023-01-26T16:20:46;101887.09;;;2.66;100.00